sensor_id;sensor_type;location;lat;lon;timestamp;pressure;altitude;pressure_sealevel;temperature;humidity
25498;BME280;13406;53.380;7.226;2022-09-01T00:00:59;102370.06;;;15.23;100.00
25498;BME280;13406;53.380;7.226;2022-09-01T00:03:27;102396.19;;;15.37;100.00
25498;BME280;13406;53.380;7.226;2022-09-01T00:05:53;102488.25;;;15.87;100.00
25498;BME280;13406;53.380;7.226;2022-09-01T00:08:22;102477.06;;;15.69;100.00
25498;BME280;13406;53.380;7.226;2022-09-01T00:10:48;102451.09;;;15.74;100.00
25498;BME280;13406;53.380;7.226;2022-09-01T00:13:14;102392.41;;;15.32;100.00
25498;BME280;13406;53.380;7.226;2022-09-01T00:15:40;102333.44;;;14.99;100.00
25498;BME280;13406;53.380;7.226;2022-09-01T00:18:05;102485.53;;;15.87;100.00
25498;BME280;13406;53.380;7.226;2022-09-01T00:20:31;102488.13;;;15.95;100.00
25498;BME280;13406;53.380;7.226;2022-09-01T00:22:57;102417.75;;;15.52;100.00
25498;BME280;13406;53.380;7.226;2022-09-01T00:25:25;102474.41;;;15.75;100.00
25498;BME280;13406;53.380;7.226;2022-09-01T00:27:52;102455.56;;;15.67;100.00
25498;BME280;13406;53.380;7.226;2022-09-01T00:30:18;102468.88;;;15.84;100.00
25498;BME280;13406;53.380;7.226;2022-09-01T00:32:44;102483.88;;;15.86;100.00
25498;BME280;13406;53.380;7.226;2022-09-01T00:35:12;102473.00;;;15.65;100.00
25498;BME280;13406;53.380;7.226;2022-09-01T00:37:38;102358.22;;;15.03;100.00
25498;BME280;13406;53.380;7.226;2022-09-01T00:40:04;102469.44;;;15.79;100.00
25498;BME280;13406;53.380;7.226;2022-09-01T00:42:30;102437.78;;;15.58;100.00
25498;BME280;13406;53.380;7.226;2022-09-01T00:44:56;102478.22;;;15.81;100.00
25498;BME280;13406;53.380;7.226;2022-09-01T00:47:21;102483.06;;;15.86;100.00
25498;BME280;13406;53.380;7.226;2022-09-01T00:49:48;102475.16;;;15.91;100.00
25498;BME280;13406;53.380;7.226;2022-09-01T00:52:28;102472.94;;;15.94;100.00
25498;BME280;13406;53.380;7.226;2022-09-01T00:54:57;102405.97;;;15.38;100.00
25498;BME280;13406;53.380;7.226;2022-09-01T00:57:24;102484.06;;;15.85;100.00
25498;BME280;13406;53.380;7.226;2022-09-01T00:59:59;102415.78;;;15.61;100.00
25498;BME280;13406;53.380;7.226;2022-09-01T01:02:25;102278.59;;;14.62;100.00
25498;BME280;13406;53.380;7.226;2022-09-01T01:04:51;102383.91;;;15.35;100.00
25498;BME280;13406;53.380;7.226;2022-09-01T01:07:20;102401.66;;;15.44;100.00
25498;BME280;13406;53.380;7.226;2022-09-01T01:09:47;102467.50;;;15.73;100.00
25498;BME280;13406;53.380;7.226;2022-09-01T01:12:13;102462.19;;;15.79;100.00
25498;BME280;13406;53.380;7.226;2022-09-01T01:14:43;102442.09;;;15.52;100.00
25498;BME280;13406;53.380;7.226;2022-09-01T01:17:10;102469.13;;;15.89;100.00
25498;BME280;13406;53.380;7.226;2022-09-01T01:19:46;102457.13;;;15.76;100.00
25498;BME280;13406;53.380;7.226;2022-09-01T01:25:33;102474.84;;;16.00;100.00
25498;BME280;13406;53.380;7.226;2022-09-01T01:28:05;102413.16;;;15.68;100.00
25498;BME280;13406;53.380;7.226;2022-09-01T01:30:31;102310.13;;;14.98;100.00
25498;BME280;13406;53.380;7.226;2022-09-01T01:32:57;102321.75;;;15.13;100.00
25498;BME280;13406;53.380;7.226;2022-09-01T01:35:24;102369.44;;;15.43;100.00
25498;BME280;13406;53.380;7.226;2022-09-01T01:37:50;102428.38;;;15.69;100.00
25498;BME280;13406;53.380;7.226;2022-09-01T01:40:18;102463.00;;;15.80;100.00
25498;BME280;13406;53.380;7.226;2022-09-01T01:42:46;102454.78;;;15.88;100.00
25498;BME280;13406;53.380;7.226;2022-09-01T01:45:18;102459.78;;;15.91;100.00
25498;BME280;13406;53.380;7.226;2022-09-01T01:47:46;102462.81;;;15.81;100.00
25498;BME280;13406;53.380;7.226;2022-09-01T01:50:16;102429.28;;;15.61;100.00
25498;BME280;13406;53.380;7.226;2022-09-01T01:52:41;102366.31;;;15.03;100.00
25498;BME280;13406;53.380;7.226;2022-09-01T01:55:08;102417.81;;;15.37;100.00
25498;BME280;13406;53.380;7.226;2022-09-01T01:57:38;102460.88;;;15.75;100.00
25498;BME280;13406;53.380;7.226;2022-09-01T02:00:05;102442.44;;;15.43;100.00
25498;BME280;13406;53.380;7.226;2022-09-01T02:02:30;102440.13;;;15.40;100.00
25498;BME280;13406;53.380;7.226;2022-09-01T02:04:56;102449.22;;;15.38;100.00
25498;BME280;13406;53.380;7.226;2022-09-01T02:07:21;102461.97;;;15.45;100.00
25498;BME280;13406;53.380;7.226;2022-09-01T02:09:47;102459.88;;;15.40;100.00
25498;BME280;13406;53.380;7.226;2022-09-01T02:12:12;102377.84;;;15.11;100.00
25498;BME280;13406;53.380;7.226;2022-09-01T02:14:38;102345.06;;;14.78;100.00
25498;BME280;13406;53.380;7.226;2022-09-01T02:17:04;102264.94;;;14.19;100.00
25498;BME280;13406;53.380;7.226;2022-09-01T02:19:32;102472.19;;;15.43;100.00
25498;BME280;13406;53.380;7.226;2022-09-01T02:22:02;102379.28;;;14.92;100.00
25498;BME280;13406;53.380;7.226;2022-09-01T02:24:27;102467.44;;;15.30;100.00
25498;BME280;13406;53.380;7.226;2022-09-01T02:26:56;102466.75;;;15.43;100.00
25498;BME280;13406;53.380;7.226;2022-09-01T02:29:25;102462.84;;;15.45;100.00
25498;BME280;13406;53.380;7.226;2022-09-01T02:31:53;102465.00;;;15.35;100.00
25498;BME280;13406;53.380;7.226;2022-09-01T02:34:21;102458.22;;;15.60;100.00
25498;BME280;13406;53.380;7.226;2022-09-01T02:36:51;102462.97;;;15.58;100.00
25498;BME280;13406;53.380;7.226;2022-09-01T02:39:30;102456.91;;;15.71;100.00
25498;BME280;13406;53.380;7.226;2022-09-01T02:41:59;102437.78;;;15.58;100.00
25498;BME280;13406;53.380;7.226;2022-09-01T02:44:25;102429.34;;;15.46;100.00
25498;BME280;13406;53.380;7.226;2022-09-01T02:46:53;102340.25;;;14.95;100.00
25498;BME280;13406;53.380;7.226;2022-09-01T02:49:21;102446.91;;;15.72;100.00
25498;BME280;13406;53.380;7.226;2022-09-01T02:51:51;102452.13;;;15.73;100.00
25498;BME280;13406;53.380;7.226;2022-09-01T02:54:19;102303.56;;;14.86;100.00
25498;BME280;13406;53.380;7.226;2022-09-01T02:56:47;102342.06;;;15.31;100.00
25498;BME280;13406;53.380;7.226;2022-09-01T02:59:14;102447.00;;;15.85;100.00
25498;BME280;13406;53.380;7.226;2022-09-01T03:01:40;102335.03;;;15.15;100.00
25498;BME280;13406;53.380;7.226;2022-09-01T03:04:11;102453.50;;;15.91;100.00
25498;BME280;13406;53.380;7.226;2022-09-01T03:06:37;102444.81;;;15.95;100.00
25498;BME280;13406;53.380;7.226;2022-09-01T03:09:06;102376.41;;;15.58;100.00
25498;BME280;13406;53.380;7.226;2022-09-01T03:11:35;102432.88;;;15.83;100.00
25498;BME280;13406;53.380;7.226;2022-09-01T03:14:01;102306.16;;;14.94;100.00
25498;BME280;13406;53.380;7.226;2022-09-01T03:16:28;102441.56;;;15.78;100.00
25498;BME280;13406;53.380;7.226;2022-09-01T03:18:57;102421.53;;;15.73;100.00
25498;BME280;13406;53.380;7.226;2022-09-01T03:21:23;102434.34;;;15.86;100.00
25498;BME280;13406;53.380;7.226;2022-09-01T03:23:50;102433.91;;;15.67;100.00
25498;BME280;13406;53.380;7.226;2022-09-01T03:26:17;102392.22;;;15.33;100.00
25498;BME280;13406;53.380;7.226;2022-09-01T03:28:45;102401.72;;;15.29;100.00
25498;BME280;13406;53.380;7.226;2022-09-01T03:31:12;102438.97;;;15.70;100.00
25498;BME280;13406;53.380;7.226;2022-09-01T03:33:37;102429.13;;;15.84;100.00
25498;BME280;13406;53.380;7.226;2022-09-01T03:36:04;102427.06;;;15.86;100.00
25498;BME280;13406;53.380;7.226;2022-09-01T03:38:29;102438.28;;;15.83;100.00
25498;BME280;13406;53.380;7.226;2022-09-01T03:41:01;102388.59;;;15.26;100.00
25498;BME280;13406;53.380;7.226;2022-09-01T03:43:29;102419.22;;;15.70;100.00
25498;BME280;13406;53.380;7.226;2022-09-01T03:45:55;102363.69;;;15.52;100.00
25498;BME280;13406;53.380;7.226;2022-09-01T03:48:26;102418.81;;;15.73;100.00
25498;BME280;13406;53.380;7.226;2022-09-01T03:50:54;102290.72;;;14.88;100.00
25498;BME280;13406;53.380;7.226;2022-09-01T03:53:22;102438.19;;;15.76;100.00
25498;BME280;13406;53.380;7.226;2022-09-01T03:55:49;102389.16;;;15.65;100.00
25498;BME280;13406;53.380;7.226;2022-09-01T03:58:16;102374.63;;;15.44;100.00
25498;BME280;13406;53.380;7.226;2022-09-01T04:00:48;102392.03;;;15.56;100.00
25498;BME280;13406;53.380;7.226;2022-09-01T04:03:15;102436.78;;;15.80;100.00
25498;BME280;13406;53.380;7.226;2022-09-01T04:05:46;102449.53;;;15.65;100.00
25498;BME280;13406;53.380;7.226;2022-09-01T04:08:12;102447.66;;;15.66;100.00
25498;BME280;13406;53.380;7.226;2022-09-01T04:10:58;102454.81;;;15.73;100.00
25498;BME280;13406;53.380;7.226;2022-09-01T04:13:36;102406.56;;;15.55;100.00
25498;BME280;13406;53.380;7.226;2022-09-01T04:16:02;102359.91;;;15.25;100.00
25498;BME280;13406;53.380;7.226;2022-09-01T04:18:34;102415.56;;;15.20;100.00
25498;BME280;13406;53.380;7.226;2022-09-01T04:21:00;102404.75;;;15.41;100.00
25498;BME280;13406;53.380;7.226;2022-09-01T04:23:28;102444.25;;;15.78;100.00
25498;BME280;13406;53.380;7.226;2022-09-01T04:26:10;102442.72;;;15.69;100.00
25498;BME280;13406;53.380;7.226;2022-09-01T04:28:46;102441.94;;;15.75;100.00
25498;BME280;13406;53.380;7.226;2022-09-01T04:31:18;102435.44;;;15.70;100.00
25498;BME280;13406;53.380;7.226;2022-09-01T04:33:49;102361.78;;;15.25;100.00
25498;BME280;13406;53.380;7.226;2022-09-01T04:36:28;102381.38;;;15.55;100.00
25498;BME280;13406;53.380;7.226;2022-09-01T04:38:58;102436.34;;;15.77;100.00
25498;BME280;13406;53.380;7.226;2022-09-01T04:41:30;102436.47;;;15.69;100.00
25498;BME280;13406;53.380;7.226;2022-09-01T04:43:58;102426.03;;;15.66;100.00
25498;BME280;13406;53.380;7.226;2022-09-01T04:46:30;102363.69;;;15.31;100.00
25498;BME280;13406;53.380;7.226;2022-09-01T04:48:57;102286.13;;;14.67;100.00
25498;BME280;13406;53.380;7.226;2022-09-01T04:51:24;102431.94;;;15.76;100.00
25498;BME280;13406;53.380;7.226;2022-09-01T04:53:52;102352.84;;;15.09;100.00
25498;BME280;13406;53.380;7.226;2022-09-01T04:56:19;102380.81;;;15.17;100.00
25498;BME280;13406;53.380;7.226;2022-09-01T04:58:48;102323.06;;;14.81;100.00
25498;BME280;13406;53.380;7.226;2022-09-01T05:01:22;102436.75;;;15.37;100.00
25498;BME280;13406;53.380;7.226;2022-09-01T05:03:49;102433.09;;;15.45;100.00
25498;BME280;13406;53.380;7.226;2022-09-01T05:06:21;102434.44;;;15.34;100.00
25498;BME280;13406;53.380;7.226;2022-09-01T05:08:47;102249.91;;;13.81;100.00
25498;BME280;13406;53.380;7.226;2022-09-01T05:11:14;102418.00;;;15.14;100.00
25498;BME280;13406;53.380;7.226;2022-09-01T05:13:48;102446.41;;;15.25;100.00
25498;BME280;13406;53.380;7.226;2022-09-01T05:16:17;102447.88;;;15.28;100.00
25498;BME280;13406;53.380;7.226;2022-09-01T05:18:47;102447.34;;;15.18;100.00
25498;BME280;13406;53.380;7.226;2022-09-01T05:21:15;102350.78;;;14.54;100.00
25498;BME280;13406;53.380;7.226;2022-09-01T05:23:45;102274.34;;;14.09;100.00
25498;BME280;13406;53.380;7.226;2022-09-01T05:26:19;102307.59;;;14.24;100.00
25498;BME280;13406;53.380;7.226;2022-09-01T05:28:47;102449.66;;;15.21;100.00
25498;BME280;13406;53.380;7.226;2022-09-01T05:31:14;102369.94;;;14.74;100.00
25498;BME280;13406;53.380;7.226;2022-09-01T05:33:44;102373.03;;;14.92;100.00
25498;BME280;13406;53.380;7.226;2022-09-01T05:36:12;102458.44;;;15.44;100.00
25498;BME280;13406;53.380;7.226;2022-09-01T05:38:38;102449.38;;;15.52;100.00
25498;BME280;13406;53.380;7.226;2022-09-01T05:41:08;102330.06;;;14.76;100.00
25498;BME280;13406;53.380;7.226;2022-09-01T05:43:35;102308.47;;;14.76;100.00
25498;BME280;13406;53.380;7.226;2022-09-01T05:46:06;102381.25;;;14.99;100.00
25498;BME280;13406;53.380;7.226;2022-09-01T05:48:31;102343.31;;;14.92;100.00
25498;BME280;13406;53.380;7.226;2022-09-01T05:51:05;102462.69;;;15.53;100.00
25498;BME280;13406;53.380;7.226;2022-09-01T05:53:32;102442.84;;;15.82;100.00
25498;BME280;13406;53.380;7.226;2022-09-01T05:55:59;102447.41;;;15.82;100.00
25498;BME280;13406;53.380;7.226;2022-09-01T05:58:32;102439.38;;;15.89;100.00
25498;BME280;13406;53.380;7.226;2022-09-01T06:01:01;102271.03;;;14.73;100.00
25498;BME280;13406;53.380;7.226;2022-09-01T06:03:27;102470.53;;;16.06;100.00
25498;BME280;13406;53.380;7.226;2022-09-01T06:05:54;102454.50;;;16.11;100.00
25498;BME280;13406;53.380;7.226;2022-09-01T06:08:25;102454.16;;;16.14;100.00
25498;BME280;13406;53.380;7.226;2022-09-01T06:10:53;102449.19;;;16.18;100.00
25498;BME280;13406;53.380;7.226;2022-09-01T06:13:19;102410.28;;;15.97;100.00
25498;BME280;13406;53.380;7.226;2022-09-01T06:15:49;102352.22;;;15.29;100.00
25498;BME280;13406;53.380;7.226;2022-09-01T06:18:15;102460.72;;;16.05;100.00
25498;BME280;13406;53.380;7.226;2022-09-01T06:20:43;102453.34;;;16.20;100.00
25498;BME280;13406;53.380;7.226;2022-09-01T06:23:10;102455.72;;;16.30;100.00
25498;BME280;13406;53.380;7.226;2022-09-01T06:25:40;102359.03;;;15.68;100.00
25498;BME280;13406;53.380;7.226;2022-09-01T06:28:09;102414.41;;;15.93;100.00
25498;BME280;13406;53.380;7.226;2022-09-01T06:30:36;102397.94;;;15.88;100.00
25498;BME280;13406;53.380;7.226;2022-09-01T06:33:03;102463.78;;;16.23;100.00
25498;BME280;13406;53.380;7.226;2022-09-01T06:35:36;102427.38;;;16.26;100.00
25498;BME280;13406;53.380;7.226;2022-09-01T06:38:03;102411.84;;;16.13;100.00
25498;BME280;13406;53.380;7.226;2022-09-01T06:40:29;102463.41;;;16.61;100.00
25498;BME280;13406;53.380;7.226;2022-09-01T06:42:54;102410.72;;;16.29;100.00
25498;BME280;13406;53.380;7.226;2022-09-01T06:45:22;102478.03;;;16.67;100.00
25498;BME280;13406;53.380;7.226;2022-09-01T06:47:49;102479.59;;;16.83;100.00
25498;BME280;13406;53.380;7.226;2022-09-01T06:50:19;102481.25;;;16.77;100.00
25498;BME280;13406;53.380;7.226;2022-09-01T06:52:47;102356.50;;;16.22;100.00
25498;BME280;13406;53.380;7.226;2022-09-01T06:55:14;102404.41;;;16.57;100.00
25498;BME280;13406;53.380;7.226;2022-09-01T06:57:41;102433.22;;;16.64;100.00
25498;BME280;13406;53.380;7.226;2022-09-01T07:00:12;102475.34;;;17.08;100.00
25498;BME280;13406;53.380;7.226;2022-09-01T07:02:46;102435.50;;;17.02;100.00
25498;BME280;13406;53.380;7.226;2022-09-01T07:05:13;102483.34;;;17.30;100.00
25498;BME280;13406;53.380;7.226;2022-09-01T07:07:47;102484.41;;;17.29;100.00
25498;BME280;13406;53.380;7.226;2022-09-01T07:10:16;102426.94;;;16.99;100.00
25498;BME280;13406;53.380;7.226;2022-09-01T07:12:45;102437.63;;;17.13;100.00
25498;BME280;13406;53.380;7.226;2022-09-01T07:15:12;102485.28;;;17.43;100.00
25498;BME280;13406;53.380;7.226;2022-09-01T07:17:42;102396.03;;;16.86;100.00
25498;BME280;13406;53.380;7.226;2022-09-01T07:20:08;102464.16;;;17.31;100.00
25498;BME280;13406;53.380;7.226;2022-09-01T07:22:35;102436.00;;;17.32;100.00
25498;BME280;13406;53.380;7.226;2022-09-01T07:25:00;102423.50;;;17.25;100.00
25498;BME280;13406;53.380;7.226;2022-09-01T07:27:26;102475.50;;;17.55;100.00
25498;BME280;13406;53.380;7.226;2022-09-01T07:29:52;102464.22;;;17.45;100.00
25498;BME280;13406;53.380;7.226;2022-09-01T07:32:21;102466.34;;;17.62;100.00
25498;BME280;13406;53.380;7.226;2022-09-01T07:34:47;102352.53;;;17.01;100.00
25498;BME280;13406;53.380;7.226;2022-09-01T07:37:13;102412.22;;;17.41;100.00
25498;BME280;13406;53.380;7.226;2022-09-01T07:39:39;102473.50;;;17.97;100.00
25498;BME280;13406;53.380;7.226;2022-09-01T07:42:10;102480.59;;;17.91;100.00
25498;BME280;13406;53.380;7.226;2022-09-01T07:44:36;102455.72;;;17.81;100.00
25498;BME280;13406;53.380;7.226;2022-09-01T07:47:03;102289.31;;;16.81;100.00
25498;BME280;13406;53.380;7.226;2022-09-01T07:49:32;102439.88;;;17.84;100.00
25498;BME280;13406;53.380;7.226;2022-09-01T07:51:58;102398.09;;;17.66;100.00
25498;BME280;13406;53.380;7.226;2022-09-01T07:54:26;102410.41;;;17.75;100.00
25498;BME280;13406;53.380;7.226;2022-09-01T07:56:51;102364.91;;;17.63;100.00
25498;BME280;13406;53.380;7.226;2022-09-01T07:59:19;102459.31;;;18.15;100.00
25498;BME280;13406;53.380;7.226;2022-09-01T08:01:45;102472.03;;;18.14;100.00
25498;BME280;13406;53.380;7.226;2022-09-01T08:04:11;102442.78;;;17.96;100.00
25498;BME280;13406;53.380;7.226;2022-09-01T08:06:37;102470.38;;;18.00;100.00
25498;BME280;13406;53.380;7.226;2022-09-01T08:09:03;102467.44;;;18.15;100.00
25498;BME280;13406;53.380;7.226;2022-09-01T08:11:31;102430.28;;;17.95;100.00
25498;BME280;13406;53.380;7.226;2022-09-01T08:13:58;102478.09;;;18.29;100.00
25498;BME280;13406;53.380;7.226;2022-09-01T08:16:26;102472.44;;;18.31;100.00
25498;BME280;13406;53.380;7.226;2022-09-01T08:18:51;102447.81;;;18.13;100.00
25498;BME280;13406;53.380;7.226;2022-09-01T08:21:19;102443.63;;;18.23;100.00
25498;BME280;13406;53.380;7.226;2022-09-01T08:23:46;102459.44;;;18.53;100.00
25498;BME280;13406;53.380;7.226;2022-09-01T08:26:14;102451.97;;;18.35;100.00
25498;BME280;13406;53.380;7.226;2022-09-01T08:28:41;102446.09;;;18.51;100.00
25498;BME280;13406;53.380;7.226;2022-09-01T08:31:08;102461.13;;;18.61;100.00
25498;BME280;13406;53.380;7.226;2022-09-01T08:33:38;102453.78;;;18.61;100.00
25498;BME280;13406;53.380;7.226;2022-09-01T08:36:10;102451.44;;;18.71;100.00
25498;BME280;13406;53.380;7.226;2022-09-01T08:38:36;102438.91;;;18.70;100.00
25498;BME280;13406;53.380;7.226;2022-09-01T08:41:03;102456.69;;;18.80;100.00
25498;BME280;13406;53.380;7.226;2022-09-01T08:46:27;102356.50;;;18.32;100.00
25498;BME280;13406;53.380;7.226;2022-09-01T08:48:59;102388.34;;;18.63;100.00
25498;BME280;13406;53.380;7.226;2022-09-01T08:54:17;102433.84;;;18.94;100.00
25498;BME280;13406;53.380;7.226;2022-09-01T08:56:49;102360.00;;;18.39;100.00
25498;BME280;13406;53.380;7.226;2022-09-01T08:59:17;102366.66;;;18.49;100.00
25498;BME280;13406;53.380;7.226;2022-09-01T09:02:18;102426.94;;;18.98;100.00
25498;BME280;13406;53.380;7.226;2022-09-01T09:16:17;102439.72;;;19.29;100.00
25498;BME280;13406;53.380;7.226;2022-09-01T09:18:52;102427.50;;;19.45;100.00
25498;BME280;13406;53.380;7.226;2022-09-01T09:21:24;102339.97;;;18.85;100.00
25498;BME280;13406;53.380;7.226;2022-09-01T09:26:52;102426.34;;;19.59;100.00
25498;BME280;13406;53.380;7.226;2022-09-01T09:29:19;102344.16;;;19.19;100.00
25498;BME280;13406;53.380;7.226;2022-09-01T09:31:48;102413.28;;;19.75;100.00
25498;BME280;13406;53.380;7.226;2022-09-01T09:34:40;102308.69;;;19.07;100.00
25498;BME280;13406;53.380;7.226;2022-09-01T09:40:06;102409.84;;;19.86;100.00
25498;BME280;13406;53.380;7.226;2022-09-01T09:42:37;102342.63;;;19.55;100.00
25498;BME280;13406;53.380;7.226;2022-09-01T09:48:04;102315.13;;;19.38;100.00
25498;BME280;13406;53.380;7.226;2022-09-01T09:50:37;102392.78;;;19.97;100.00
25498;BME280;13406;53.380;7.226;2022-09-01T09:55:57;102397.72;;;20.25;100.00
25498;BME280;13406;53.380;7.226;2022-09-01T09:58:27;102383.41;;;20.30;100.00
25498;BME280;13406;53.380;7.226;2022-09-01T10:01:05;102307.97;;;19.94;100.00
25498;BME280;13406;53.380;7.226;2022-09-01T10:03:41;102388.72;;;20.43;100.00
25498;BME280;13406;53.380;7.226;2022-09-01T10:06:12;102387.69;;;20.63;100.00
25498;BME280;13406;53.380;7.226;2022-09-01T10:08:43;102336.78;;;20.38;100.00
25498;BME280;13406;53.380;7.226;2022-09-01T10:11:38;102389.69;;;20.86;100.00
25498;BME280;13406;53.380;7.226;2022-09-01T10:14:06;102330.66;;;20.43;100.00
25498;BME280;13406;53.380;7.226;2022-09-01T10:16:36;102370.03;;;20.65;100.00
25498;BME280;13406;53.380;7.226;2022-09-01T10:19:04;102372.31;;;20.31;100.00
25498;BME280;13406;53.380;7.226;2022-09-01T10:21:39;102364.44;;;20.23;100.00
25498;BME280;13406;53.380;7.226;2022-09-01T10:24:32;102373.88;;;20.39;100.00
25498;BME280;13406;53.380;7.226;2022-09-01T10:27:03;102382.47;;;20.61;100.00
25498;BME280;13406;53.380;7.226;2022-09-01T10:29:41;102374.97;;;20.75;100.00
25498;BME280;13406;53.380;7.226;2022-09-01T10:32:12;102344.41;;;20.85;100.00
25498;BME280;13406;53.380;7.226;2022-09-01T10:34:41;102376.22;;;21.21;100.00
25498;BME280;13406;53.380;7.226;2022-09-01T10:37:07;102357.91;;;21.10;100.00
25498;BME280;13406;53.380;7.226;2022-09-01T10:39:33;102345.31;;;21.09;100.00
25498;BME280;13406;53.380;7.226;2022-09-01T10:42:18;102348.34;;;20.89;100.00
25498;BME280;13406;53.380;7.226;2022-09-01T10:44:56;102346.00;;;20.74;100.00
25498;BME280;13406;53.380;7.226;2022-09-01T10:47:32;102340.56;;;20.74;100.00
25498;BME280;13406;53.380;7.226;2022-09-01T10:50:04;102372.34;;;20.98;100.00
25498;BME280;13406;53.380;7.226;2022-09-01T10:55:26;102327.16;;;21.03;100.00
25498;BME280;13406;53.380;7.226;2022-09-01T10:58:20;102359.09;;;21.56;100.00
25498;BME280;13406;53.380;7.226;2022-09-01T11:00:51;102349.50;;;21.65;100.00
25498;BME280;13406;53.380;7.226;2022-09-01T11:06:05;102350.94;;;21.79;100.00
25498;BME280;13406;53.380;7.226;2022-09-01T11:13:33;102352.19;;;21.41;100.00
25498;BME280;13406;53.380;7.226;2022-09-01T11:19:36;102337.41;;;21.19;100.00
25498;BME280;13406;53.380;7.226;2022-09-01T11:27:09;102344.38;;;22.04;100.00
25498;BME280;13406;53.380;7.226;2022-09-01T11:29:53;102335.22;;;22.10;100.00
25498;BME280;13406;53.380;7.226;2022-09-01T11:32:22;102335.69;;;22.07;100.00
25498;BME280;13406;53.380;7.226;2022-09-01T11:34:50;102234.09;;;21.70;100.00
25498;BME280;13406;53.380;7.226;2022-09-01T11:37:19;102302.09;;;22.18;100.00
25498;BME280;13406;53.380;7.226;2022-09-01T11:39:48;102324.94;;;22.52;100.00
25498;BME280;13406;53.380;7.226;2022-09-01T11:42:22;102209.09;;;21.89;100.00
25498;BME280;13406;53.380;7.226;2022-09-01T11:47:36;102315.03;;;22.11;100.00
25498;BME280;13406;53.380;7.226;2022-09-01T11:50:34;102326.19;;;22.21;100.00
25498;BME280;13406;53.380;7.226;2022-09-01T11:53:09;102336.78;;;22.06;100.00
25498;BME280;13406;53.380;7.226;2022-09-01T11:55:44;102327.16;;;21.92;100.00
25498;BME280;13406;53.380;7.226;2022-09-01T11:58:12;102321.94;;;22.02;100.00
25498;BME280;13406;53.380;7.226;2022-09-01T12:00:40;102262.34;;;21.52;100.00
25498;BME280;13406;53.380;7.226;2022-09-01T12:03:26;102319.91;;;22.09;100.00
25498;BME280;13406;53.380;7.226;2022-09-01T12:05:59;102263.03;;;21.94;100.00
25498;BME280;13406;53.380;7.226;2022-09-01T12:08:29;102317.31;;;22.02;100.00
25498;BME280;13406;53.380;7.226;2022-09-01T12:11:11;102308.38;;;22.19;100.00
25498;BME280;13406;53.380;7.226;2022-09-01T12:13:57;102313.47;;;22.15;100.00
25498;BME280;13406;53.380;7.226;2022-09-01T12:16:23;102300.56;;;22.22;100.00
25498;BME280;13406;53.380;7.226;2022-09-01T12:18:51;102306.06;;;22.51;100.00
25498;BME280;13406;53.380;7.226;2022-09-01T12:21:30;102298.31;;;22.76;100.00
25498;BME280;13406;53.380;7.226;2022-09-01T12:24:18;102313.56;;;23.01;100.00
25498;BME280;13406;53.380;7.226;2022-09-01T12:26:49;102216.88;;;22.50;100.00
25498;BME280;13406;53.380;7.226;2022-09-01T12:29:16;102304.72;;;22.53;100.00
25498;BME280;13406;53.380;7.226;2022-09-01T12:31:45;102275.22;;;22.15;100.00
25498;BME280;13406;53.380;7.226;2022-09-01T12:34:35;102244.31;;;21.62;100.00
25498;BME280;13406;53.380;7.226;2022-09-01T12:37:05;102308.41;;;21.83;100.00
25498;BME280;13406;53.380;7.226;2022-09-01T12:39:36;102298.31;;;22.07;100.00
25498;BME280;13406;53.380;7.226;2022-09-01T12:47:07;102305.91;;;22.17;100.00
25498;BME280;13406;53.380;7.226;2022-09-01T12:49:34;102300.78;;;22.21;100.00
25498;BME280;13406;53.380;7.226;2022-09-01T12:52:22;102291.53;;;22.22;100.00
25498;BME280;13406;53.380;7.226;2022-09-01T12:55:17;102279.19;;;22.19;100.00
25498;BME280;13406;53.380;7.226;2022-09-01T12:57:51;102273.78;;;22.24;100.00
25498;BME280;13406;53.380;7.226;2022-09-01T13:00:21;102240.84;;;21.91;100.00
25498;BME280;13406;53.380;7.226;2022-09-01T13:03:05;102276.66;;;22.06;100.00
25498;BME280;13406;53.380;7.226;2022-09-01T13:05:33;102279.97;;;22.31;100.00
25498;BME280;13406;53.380;7.226;2022-09-01T13:08:04;102266.00;;;22.04;100.00
25498;BME280;13406;53.380;7.226;2022-09-01T13:10:40;102274.56;;;21.96;100.00
25498;BME280;13406;53.380;7.226;2022-09-01T13:13:08;102283.94;;;21.88;100.00
25498;BME280;13406;53.380;7.226;2022-09-01T13:15:35;102275.16;;;21.75;100.00
25498;BME280;13406;53.380;7.226;2022-09-01T13:18:01;102222.34;;;21.69;100.00
25498;BME280;13406;53.380;7.226;2022-09-01T13:20:27;102261.38;;;22.45;100.00
25498;BME280;13406;53.380;7.226;2022-09-01T13:22:52;102246.16;;;22.95;100.00
25498;BME280;13406;53.380;7.226;2022-09-01T13:25:19;102227.47;;;23.26;100.00
25498;BME280;13406;53.380;7.226;2022-09-01T13:27:46;102254.09;;;22.96;100.00
25498;BME280;13406;53.380;7.226;2022-09-01T13:30:20;102285.56;;;22.65;100.00
25498;BME280;13406;53.380;7.226;2022-09-01T13:32:46;102278.34;;;22.47;100.00
25498;BME280;13406;53.380;7.226;2022-09-01T13:35:14;102265.97;;;22.16;100.00
25498;BME280;13406;53.380;7.226;2022-09-01T13:37:40;102210.94;;;21.72;100.00
25498;BME280;13406;53.380;7.226;2022-09-01T13:40:07;102196.75;;;21.87;100.00
25498;BME280;13406;53.380;7.226;2022-09-01T13:42:49;102159.09;;;22.29;100.00
25498;BME280;13406;53.380;7.226;2022-09-01T13:45:16;102245.91;;;23.13;100.00
25498;BME280;13406;53.380;7.226;2022-09-01T13:47:44;102246.09;;;23.23;100.00
25498;BME280;13406;53.380;7.226;2022-09-01T13:50:11;102243.59;;;23.22;100.00
25498;BME280;13406;53.380;7.226;2022-09-01T13:52:40;102252.47;;;23.29;100.00